Time;durP1;ratioP1;P1;durP2;ratioP2;P2;SDS_P1;SDS_P2;PMS_P1;PMS_P2;Temp;Humidity;BMP_temperature;BMP_pressure;BME280_temperature;BME280_humidity;BME280_pressure;Samples;Min_cycle;Max_cycle;Signal;HPM_P1;HPM_P2
2022/09/10 00:01:52;;;;;;;3.57;1.90;;;16.20;89.40;;;;;;4987157;28;20500;-51
2022/09/10 00:04:19;;;;;;;1.80;1.70;;;16.20;89.00;;;;;;4994226;28;21063;-51
2022/09/10 00:06:45;;;;;;;3.00;2.17;;;16.10;89.20;;;;;;4986996;28;20521;-51
2022/09/10 00:09:12;;;;;;;1.80;1.70;;;16.00;89.70;;;;;;4995842;28;20613;-51
2022/09/10 00:11:40;;;;;;;2.10;2.00;;;16.00;89.40;;;;;;4992791;28;20562;-51
2022/09/10 00:14:12;;;;;;;2.37;2.17;;;16.00;89.40;;;;;;4998857;28;20461;-51
2022/09/10 00:16:39;;;;;;;3.17;2.10;;;16.00;88.90;;;;;;4985532;28;21085;-51
2022/09/10 00:19:06;;;;;;;2.70;2.17;;;16.00;89.10;;;;;;4993255;28;20473;-51
2022/09/10 00:21:34;;;;;;;3.80;2.13;;;15.90;88.70;;;;;;4994570;28;21002;-51
2022/09/10 00:24:03;;;;;;;3.80;2.50;;;15.90;89.40;;;;;;4996239;28;20497;-51
2022/09/10 00:26:36;;;;;;;3.93;2.10;;;16.00;89.00;;;;;;4994904;28;20452;-51
2022/09/10 00:29:05;;;;;;;4.90;2.07;;;16.00;88.80;;;;;;4999043;28;20521;-51
2022/09/10 00:31:33;;;;;;;5.70;2.90;;;16.00;88.70;;;;;;4998144;28;20969;-51
2022/09/10 00:34:01;;;;;;;2.33;2.00;;;16.10;88.40;;;;;;4986251;28;20512;-51
2022/09/10 00:36:31;;;;;;;2.50;1.70;;;16.00;88.60;;;;;;4992184;28;20975;-51
2022/09/10 00:39:01;;;;;;;2.43;2.20;;;16.00;88.90;;;;;;4978411;28;20977;-51
2022/09/10 00:41:28;;;;;;;2.70;2.50;;;16.00;89.00;;;;;;4995983;28;20485;-51
2022/09/10 00:43:57;;;;;;;3.10;2.17;;;16.00;88.90;;;;;;4997874;28;20472;-51
2022/09/10 00:46:49;;;;;;;4.40;1.90;;;16.00;89.10;;;;;;4993037;28;20555;-51
2022/09/10 00:49:24;;;;;;;5.17;2.30;;;16.00;89.00;;;;;;4998178;28;20562;-51
2022/09/10 00:51:52;;;;;;;2.93;2.00;;;15.90;89.30;;;;;;4995716;28;20539;-51
2022/09/10 00:54:22;;;;;;;3.87;1.63;;;15.90;89.50;;;;;;4996929;28;20521;-51
2022/09/10 00:56:52;;;;;;;2.40;2.10;;;15.90;89.30;;;;;;4995591;28;20477;-51
2022/09/10 00:59:22;;;;;;;3.30;2.03;;;15.90;89.40;;;;;;4995789;28;21316;-51
2022/09/10 01:01:49;;;;;;;2.80;2.07;;;15.90;89.50;;;;;;4995551;28;20469;-51
2022/09/10 01:04:15;;;;;;;2.90;2.70;;;15.90;89.80;;;;;;4994518;28;20835;-52
2022/09/10 01:06:46;;;;;;;2.97;2.30;;;16.00;89.70;;;;;;4996362;28;20513;-50
2022/09/10 01:09:13;;;;;;;4.87;2.03;;;15.80;89.80;;;;;;4987371;28;20476;-51
2022/09/10 01:12:05;;;;;;;1.70;1.60;;;15.70;89.80;;;;;;4995905;28;20502;-51
2022/09/10 01:14:50;;;;;;;1.90;1.70;;;15.70;89.80;;;;;;4982863;28;20518;-51
2022/09/10 01:17:33;;;;;;;4.07;2.53;;;15.80;89.80;;;;;;4995402;28;20969;-50
2022/09/10 01:20:25;;;;;;;2.13;1.80;;;15.90;89.80;;;;;;4999741;28;20461;-51
2022/09/10 01:23:30;;;;;;;2.63;1.83;;;16.00;89.80;;;;;;4986457;28;20492;-51
2022/09/10 01:25:56;;;;;;;2.47;2.13;;;16.00;89.60;;;;;;5014849;28;20872;-51
2022/09/10 01:28:36;;;;;;;2.70;2.50;;;15.90;89.80;;;;;;4983354;28;20912;-51
2022/09/10 01:31:20;;;;;;;3.70;2.40;;;15.80;89.80;;;;;;5012907;28;20961;-51
2022/09/10 01:33:53;;;;;;;2.80;1.80;;;15.80;89.80;;;;;;5014701;28;20510;-51
2022/09/10 01:36:24;;;;;;;2.37;2.17;;;15.90;89.80;;;;;;4998581;28;21051;-50
2022/09/10 01:38:51;;;;;;;4.73;2.07;;;16.00;89.60;;;;;;4997829;28;20457;-51
2022/09/10 01:41:22;;;;;;;3.20;1.83;;;15.80;89.80;;;;;;4993885;28;20519;-50
2022/09/10 01:43:48;;;;;;;5.80;2.47;;;15.70;89.80;;;;;;4998334;28;20526;-50
2022/09/10 01:46:21;;;;;;;2.10;2.00;;;15.80;89.80;;;;;;4995751;28;20469;-50
2022/09/10 01:49:06;;;;;;;3.97;2.20;;;15.90;89.40;;;;;;4997132;28;21025;-50
2022/09/10 01:51:55;;;;;;;2.30;2.10;;;15.80;89.80;;;;;;4997540;28;20554;-50
2022/09/10 01:54:25;;;;;;;3.20;2.30;;;15.70;89.80;;;;;;4982543;28;20454;-51
2022/09/10 01:57:14;;;;;;;2.13;2.03;;;15.80;89.80;;;;;;4996687;28;20476;-50
2022/09/10 01:59:58;;;;;;;4.03;2.43;;;15.60;89.80;;;;;;4997998;28;20547;-51
2022/09/10 02:02:59;;;;;;;3.03;2.83;;;15.70;89.80;;;;;;4996768;28;20918;-51
2022/09/10 02:05:29;;;;;;;2.23;1.93;;;15.70;89.80;;;;;;4980835;28;20979;-51
2022/09/10 02:08:04;;;;;;;4.23;2.63;;;15.50;89.80;;;;;;4995747;28;20994;-50
2022/09/10 02:10:30;;;;;;;3.40;2.97;;;15.50;89.80;;;;;;5000585;28;20489;-50
2022/09/10 02:12:57;;;;;;;3.60;2.90;;;15.50;89.80;;;;;;4990904;28;20484;-49
2022/09/10 02:15:26;;;;;;;5.57;2.80;;;15.60;89.80;;;;;;5010891;28;20468;-49
2022/09/10 02:17:53;;;;;;;3.00;2.37;;;15.60;89.80;;;;;;4997736;28;20464;-50
2022/09/10 02:20:20;;;;;;;2.53;2.33;;;15.70;89.80;;;;;;4993974;28;20464;-49
2022/09/10 02:22:52;;;;;;;4.23;2.47;;;15.60;89.80;;;;;;4999285;28;21132;-49
2022/09/10 02:25:19;;;;;;;2.77;2.57;;;15.70;89.80;;;;;;4997214;28;20895;-49
2022/09/10 02:27:45;;;;;;;3.30;3.00;;;15.70;89.80;;;;;;4999968;28;21047;-49
2022/09/10 02:30:12;;;;;;;4.40;2.57;;;15.60;89.80;;;;;;4997990;28;20489;-49
2022/09/10 02:32:39;;;;;;;3.93;2.93;;;15.60;89.80;;;;;;5000224;28;20794;-49
2022/09/10 02:35:06;;;;;;;2.30;2.10;;;15.50;89.80;;;;;;4996670;28;20526;-49
2022/09/10 02:37:33;;;;;;;4.07;3.77;;;15.50;89.80;;;;;;4997108;28;22547;-49
2022/09/10 02:39:59;;;;;;;4.27;3.10;;;15.50;89.80;;;;;;4999865;28;20548;-49
2022/09/10 02:42:26;;;;;;;4.40;3.60;;;15.40;89.80;;;;;;5016008;28;20471;-49
2022/09/10 02:44:53;;;;;;;8.57;3.50;;;15.40;89.80;;;;;;4994954;28;20468;-49
2022/09/10 02:47:19;;;;;;;7.40;3.60;;;15.30;89.80;;;;;;5001995;28;20472;-49
2022/09/10 02:49:46;;;;;;;3.67;3.37;;;15.30;89.80;;;;;;5012094;28;20512;-48
2022/09/10 02:52:13;;;;;;;4.97;3.83;;;15.30;89.80;;;;;;5012704;28;20959;-49
2022/09/10 02:54:39;;;;;;;7.20;3.83;;;15.20;89.80;;;;;;5011653;28;20503;-49
2022/09/10 02:57:06;;;;;;;4.27;3.23;;;15.30;89.80;;;;;;4999520;28;20963;-49
2022/09/10 02:59:33;;;;;;;4.40;3.50;;;15.30;89.80;;;;;;5017020;28;20468;-49
2022/09/10 03:02:00;;;;;;;4.33;3.83;;;15.20;89.80;;;;;;5014380;28;20708;-49
2022/09/10 03:04:26;;;;;;;5.87;4.00;;;15.30;89.80;;;;;;5005844;28;20465;-49
2022/09/10 03:06:54;;;;;;;6.13;3.93;;;15.40;89.80;;;;;;5016953;28;20459;-49
2022/09/10 03:09:21;;;;;;;5.80;4.60;;;15.40;89.80;;;;;;5026644;28;20519;-49
2022/09/10 03:11:49;;;;;;;7.20;4.03;;;15.40;89.80;;;;;;5007170;28;20464;-49
2022/09/10 03:14:19;;;;;;;4.23;3.83;;;15.50;89.80;;;;;;5012254;28;20472;-49
2022/09/10 03:16:46;;;;;;;4.10;3.80;;;15.60;89.80;;;;;;5011137;28;20753;-49
2022/09/10 03:19:14;;;;;;;4.50;4.10;;;15.70;89.80;;;;;;4996492;28;20531;-48
2022/09/10 03:21:41;;;;;;;4.77;3.87;;;15.80;89.80;;;;;;5001649;28;20539;-49
2022/09/10 03:24:09;;;;;;;7.23;4.13;;;15.80;89.80;;;;;;5010217;28;20461;-49
2022/09/10 03:26:36;;;;;;;3.97;3.67;;;15.90;89.80;;;;;;5011733;28;20468;-48
2022/09/10 03:29:02;;;;;;;5.50;4.00;;;15.90;89.80;;;;;;5000446;28;20488;-49
2022/09/10 03:31:29;;;;;;;5.60;3.83;;;15.90;89.80;;;;;;5009956;28;20822;-49
2022/09/10 03:33:56;;;;;;;4.13;3.70;;;15.80;89.80;;;;;;5013402;28;20479;-48
2022/09/10 03:36:23;;;;;;;6.70;4.17;;;15.80;89.80;;;;;;5029742;28;20471;-49
2022/09/10 03:38:49;;;;;;;5.50;4.80;;;15.80;89.80;;;;;;5013421;28;20944;-49
2022/09/10 03:41:16;;;;;;;5.33;4.10;;;15.60;89.80;;;;;;5008612;28;20495;-48
2022/09/10 03:43:43;;;;;;;6.90;4.60;;;15.70;89.80;;;;;;5026499;28;20469;-49
2022/09/10 03:46:10;;;;;;;6.57;4.67;;;15.50;89.80;;;;;;5010541;28;20989;-48
2022/09/10 03:48:38;;;;;;;8.47;4.60;;;15.40;89.80;;;;;;5011153;28;20461;-49
2022/09/10 03:51:05;;;;;;;5.67;4.80;;;15.40;89.80;;;;;;5006621;28;20488;-48
2022/09/10 03:53:31;;;;;;;5.63;4.57;;;15.40;89.80;;;;;;5002762;28;20462;-49
2022/09/10 03:55:58;;;;;;;7.90;4.50;;;15.40;89.80;;;;;;5009282;28;20460;-48
2022/09/10 03:58:25;;;;;;;6.43;5.40;;;15.30;89.80;;;;;;4999192;28;20480;-49
2022/09/10 04:00:52;;;;;;;5.33;4.83;;;15.30;89.80;;;;;;5009887;28;20492;-49
2022/09/10 04:03:21;;;;;;;6.13;5.53;;;15.30;89.80;;;;;;5010554;28;20499;-49
2022/09/10 04:05:48;;;;;;;12.43;6.40;;;15.30;89.80;;;;;;5011054;28;20492;-49
2022/09/10 04:08:14;;;;;;;4.60;4.20;;;15.30;89.80;;;;;;5009808;28;21269;-49
2022/09/10 04:10:43;;;;;;;6.57;4.50;;;15.40;89.80;;;;;;5012265;28;20484;-48
2022/09/10 04:13:10;;;;;;;5.40;4.90;;;15.40;89.80;;;;;;5009099;28;20908;-49
2022/09/10 04:15:37;;;;;;;7.47;5.37;;;15.50;89.80;;;;;;5010132;28;20457;-49
2022/09/10 04:18:05;;;;;;;6.70;5.90;;;15.60;89.80;;;;;;5025719;28;20452;-49
2022/09/10 04:20:33;;;;;;;6.80;6.10;;;15.50;89.80;;;;;;5009734;28;20473;-49
2022/09/10 04:22:59;;;;;;;5.60;5.00;;;15.50;89.80;;;;;;5000540;28;20464;-49
2022/09/10 04:25:26;;;;;;;6.90;5.70;;;15.50;89.80;;;;;;5007430;28;20471;-49
2022/09/10 04:27:53;;;;;;;6.83;5.90;;;15.50;89.80;;;;;;5010974;28;20487;-49
2022/09/10 04:30:20;;;;;;;5.83;5.23;;;15.50;89.80;;;;;;4995085;28;20590;-49
2022/09/10 04:32:48;;;;;;;6.50;5.90;;;15.50;89.80;;;;;;5008582;28;20452;-49
2022/09/10 04:35:15;;;;;;;6.37;5.80;;;15.50;89.80;;;;;;5008581;28;20459;-49
2022/09/10 04:37:42;;;;;;;8.80;6.43;;;15.50;89.80;;;;;;4998748;28;20803;-49
2022/09/10 04:40:09;;;;;;;8.73;5.87;;;15.50;89.80;;;;;;4996854;28;20514;-49
2022/09/10 04:42:37;;;;;;;6.70;6.00;;;15.50;89.80;;;;;;5013313;28;20481;-49
2022/09/10 04:45:04;;;;;;;5.90;5.30;;;15.50;89.80;;;;;;5011901;28;20456;-49
2022/09/10 04:47:32;;;;;;;6.77;6.03;;;15.60;89.80;;;;;;4993155;28;20526;-49
2022/09/10 04:49:58;;;;;;;6.77;6.00;;;15.70;89.80;;;;;;5007450;28;20488;-49
2022/09/10 04:52:26;;;;;;;7.80;6.00;;;15.80;89.80;;;;;;4994366;28;20515;-49
2022/09/10 04:54:53;;;;;;;7.33;6.17;;;15.70;89.80;;;;;;5013860;28;20455;-49
2022/09/10 04:57:20;;;;;;;7.67;6.90;;;15.60;89.80;;;;;;5016320;28;21048;-49
2022/09/10 04:59:47;;;;;;;8.30;6.30;;;15.50;89.80;;;;;;5013648;28;20463;-49
2022/09/10 05:02:13;;;;;;;8.07;6.23;;;15.60;89.80;;;;;;4999797;28;20954;-48
2022/09/10 05:04:40;;;;;;;7.03;6.03;;;15.50;89.80;;;;;;5013699;28;20460;-48
2022/09/10 05:07:07;;;;;;;7.13;6.40;;;15.70;89.80;;;;;;5016395;28;21322;-49
2022/09/10 05:09:33;;;;;;;7.50;6.43;;;15.60;89.80;;;;;;5000262;28;20499;-48
2022/09/10 05:12:00;;;;;;;7.10;6.37;;;15.70;89.80;;;;;;5007004;28;20491;-49
2022/09/10 05:14:28;;;;;;;7.80;6.73;;;15.70;89.80;;;;;;5007300;28;20887;-48
2022/09/10 05:16:55;;;;;;;8.27;7.47;;;15.80;89.80;;;;;;5009799;28;20468;-49
2022/09/10 05:19:22;;;;;;;9.33;7.90;;;15.80;89.80;;;;;;5023321;28;20469;-49
2022/09/10 05:21:48;;;;;;;6.80;6.20;;;15.70;89.80;;;;;;4998064;28;20491;-49
2022/09/10 05:24:16;;;;;;;7.93;7.10;;;15.70;89.80;;;;;;5017211;28;20490;-49
2022/09/10 05:26:43;;;;;;;7.00;6.30;;;15.70;89.80;;;;;;4998557;28;20514;-49
2022/09/10 05:29:12;;;;;;;8.80;6.83;;;15.80;89.80;;;;;;5019636;28;20490;-49
2022/09/10 05:31:39;;;;;;;7.17;5.83;;;15.90;89.80;;;;;;5017338;28;20456;-49
2022/09/10 05:34:07;;;;;;;8.17;6.30;;;15.80;89.80;;;;;;5014985;28;20836;-49
2022/09/10 05:36:34;;;;;;;7.80;7.10;;;15.90;89.80;;;;;;5003180;28;20460;-49
2022/09/10 05:39:02;;;;;;;7.63;6.93;;;15.90;89.80;;;;;;5008690;28;20613;-50
2022/09/10 05:41:30;;;;;;;9.53;6.80;;;15.90;89.80;;;;;;5014967;28;20559;-49
2022/09/10 05:43:57;;;;;;;7.47;6.40;;;15.90;89.80;;;;;;4999008;28;21995;-49
2022/09/10 05:46:24;;;;;;;7.00;5.57;;;16.00;89.80;;;;;;4998816;28;21039;-49
2022/09/10 05:48:53;;;;;;;7.50;5.10;;;16.10;89.80;;;;;;4982714;28;21070;-49
2022/09/10 05:51:20;;;;;;;5.57;5.03;;;16.10;89.80;;;;;;4992050;28;20598;-48
2022/09/10 05:53:48;;;;;;;6.43;4.97;;;16.20;89.80;;;;;;4992634;28;20459;-49
2022/09/10 05:56:15;;;;;;;12.57;7.27;;;16.20;89.80;;;;;;4996213;28;20967;-49
2022/09/10 05:58:44;;;;;;;4.83;3.77;;;16.10;89.80;;;;;;4994768;28;20531;-49
2022/09/10 06:01:10;;;;;;;5.23;4.73;;;16.20;89.80;;;;;;4984282;28;20839;-49
2022/09/10 06:03:38;;;;;;;5.67;4.77;;;16.20;89.80;;;;;;4984199;28;20875;-50
2022/09/10 06:06:05;;;;;;;4.17;3.87;;;16.30;89.80;;;;;;4993343;28;21047;-49
2022/09/10 06:08:31;;;;;;;4.40;4.00;;;16.30;89.80;;;;;;4985429;28;20480;-48
2022/09/10 06:11:01;;;;;;;6.20;4.20;;;16.30;89.80;;;;;;5010476;28;20502;-48
2022/09/10 06:13:27;;;;;;;4.50;4.20;;;16.20;89.80;;;;;;4996594;28;20493;-49
2022/09/10 06:15:55;;;;;;;5.67;3.90;;;16.20;89.80;;;;;;5011487;28;20461;-49
2022/09/10 06:18:21;;;;;;;6.20;3.30;;;16.20;89.80;;;;;;4987137;28;20499;-51
2022/09/10 06:20:48;;;;;;;9.20;4.67;;;16.10;89.80;;;;;;4987518;28;20738;-51
2022/09/10 06:23:16;;;;;;;4.07;3.53;;;16.10;89.80;;;;;;4995198;28;20547;-49
2022/09/10 06:25:43;;;;;;;5.20;4.03;;;16.10;89.80;;;;;;4995949;28;20949;-49
2022/09/10 06:28:11;;;;;;;4.80;4.40;;;16.20;89.80;;;;;;5000622;28;21071;-49
2022/09/10 06:30:38;;;;;;;4.77;4.37;;;16.20;89.80;;;;;;4994138;28;20488;-50
2022/09/10 06:33:05;;;;;;;4.30;3.90;;;16.20;89.80;;;;;;4995533;28;20459;-49
2022/09/10 06:35:32;;;;;;;6.13;3.63;;;16.10;89.80;;;;;;4994975;28;20483;-49
2022/09/10 06:37:58;;;;;;;6.63;4.27;;;16.10;89.80;;;;;;4990914;28;20516;-49
2022/09/10 06:40:26;;;;;;;4.50;4.10;;;16.10;89.80;;;;;;5010151;28;20473;-50
2022/09/10 06:42:53;;;;;;;6.37;3.57;;;16.00;89.80;;;;;;4995515;28;20981;-51
2022/09/10 06:45:20;;;;;;;4.60;4.20;;;16.10;89.80;;;;;;4981905;28;20485;-51
2022/09/10 06:47:47;;;;;;;4.47;4.17;;;16.00;89.80;;;;;;4995380;28;20496;-51
2022/09/10 06:50:34;;;;;;;5.77;4.00;;;16.00;89.80;;;;;;4995002;28;20495;-51
2022/09/10 06:53:00;;;;;;;5.53;5.03;;;16.00;89.80;;;;;;4985227;28;20461;-51
2022/09/10 06:55:27;;;;;;;6.07;3.50;;;16.00;89.80;;;;;;4996864;28;20493;-51
2022/09/10 06:57:54;;;;;;;4.47;3.90;;;16.00;89.80;;;;;;4977225;28;20480;-51
2022/09/10 07:00:21;;;;;;;4.43;4.10;;;16.00;89.80;;;;;;4994108;28;21062;-51
2022/09/10 07:02:49;;;;;;;3.97;3.60;;;16.00;89.80;;;;;;4988053;28;20526;-51
2022/09/10 07:05:16;;;;;;;4.83;4.23;;;16.00;89.80;;;;;;4990988;28;20493;-51
2022/09/10 07:07:42;;;;;;;4.37;3.13;;;16.10;89.80;;;;;;5004398;28;20488;-51
2022/09/10 07:10:09;;;;;;;8.00;3.73;;;16.10;89.80;;;;;;4992933;28;20882;-51
2022/09/10 07:12:35;;;;;;;3.90;3.40;;;16.10;89.80;;;;;;4979361;28;20591;-51
2022/09/10 07:15:02;;;;;;;4.50;3.67;;;16.20;89.80;;;;;;4984654;28;20981;-51
2022/09/10 07:17:29;;;;;;;5.27;3.27;;;16.10;89.80;;;;;;4994186;28;20465;-51
2022/09/10 07:19:57;;;;;;;3.80;3.50;;;16.20;89.80;;;;;;4979783;28;20694;-51
2022/09/10 07:22:24;;;;;;;4.23;3.83;;;16.10;89.80;;;;;;4977652;28;20503;-51
2022/09/10 07:24:51;;;;;;;5.47;3.60;;;16.10;89.80;;;;;;4991420;28;20463;-51
2022/09/10 07:27:17;;;;;;;5.37;3.57;;;16.20;89.80;;;;;;4991123;28;20494;-51
2022/09/10 07:29:44;;;;;;;3.77;3.47;;;16.20;89.80;;;;;;4997349;28;20465;-51
2022/09/10 07:32:11;;;;;;;4.33;3.90;;;16.20;89.80;;;;;;4990368;28;20464;-51
2022/09/10 07:34:39;;;;;;;3.40;3.10;;;16.30;89.80;;;;;;4985892;28;20485;-51
2022/09/10 07:37:06;;;;;;;4.23;3.80;;;16.30;89.80;;;;;;4983940;28;20986;-51
2022/09/10 07:39:32;;;;;;;4.67;3.10;;;16.30;89.80;;;;;;4993912;28;20453;-51
2022/09/10 07:41:59;;;;;;;4.70;4.30;;;16.40;89.80;;;;;;4989504;28;20542;-51
2022/09/10 07:44:26;;;;;;;4.00;3.13;;;16.50;89.80;;;;;;4982407;28;20457;-51
2022/09/10 07:46:52;;;;;;;4.37;3.87;;;16.60;89.80;;;;;;4984209;28;20899;-51
2022/09/10 07:49:20;;;;;;;3.97;3.53;;;16.60;89.80;;;;;;5007991;28;20552;-51
2022/09/10 07:51:46;;;;;;;4.87;3.47;;;16.70;89.80;;;;;;4990952;28;20484;-51
2022/09/10 07:54:16;;;;;;;4.10;3.50;;;16.80;89.80;;;;;;4995781;28;20473;-51
2022/09/10 07:56:43;;;;;;;3.67;3.30;;;16.90;89.80;;;;;;4996113;28;20464;-51
2022/09/10 07:59:10;;;;;;;6.93;4.50;;;17.00;89.80;;;;;;4996861;28;20460;-51
2022/09/10 08:01:37;;;;;;;5.80;3.30;;;17.10;89.80;;;;;;4996425;28;20469;-51
2022/09/10 08:04:05;;;;;;;6.50;3.70;;;17.20;89.80;;;;;;4994351;28;20468;-51
2022/09/10 08:06:32;;;;;;;3.93;2.93;;;17.30;89.80;;;;;;4992305;28;20588;-51
2022/09/10 08:08:59;;;;;;;3.43;3.17;;;17.30;89.80;;;;;;5000087;28;20515;-51
2022/09/10 08:11:26;;;;;;;5.37;3.23;;;17.40;89.80;;;;;;4982593;28;20485;-51
2022/09/10 08:13:53;;;;;;;4.20;3.80;;;17.40;89.80;;;;;;4995800;28;20464;-51
2022/09/10 08:16:22;;;;;;;5.17;3.30;;;17.40;89.80;;;;;;4994945;28;20496;-51
2022/09/10 08:18:52;;;;;;;6.63;3.10;;;17.40;89.80;;;;;;4996178;28;20519;-51
2022/09/10 08:21:19;;;;;;;4.47;3.33;;;17.40;89.80;;;;;;4994070;28;20468;-51
2022/09/10 08:23:50;;;;;;;3.87;3.23;;;17.50;89.80;;;;;;4973332;28;21125;-51
2022/09/10 08:26:17;;;;;;;5.60;3.40;;;17.50;89.80;;;;;;4988596;28;21045;-51
2022/09/10 08:28:44;;;;;;;4.33;3.30;;;17.50;89.80;;;;;;4990969;28;20473;-51
2022/09/10 08:31:11;;;;;;;4.33;3.93;;;17.60;89.70;;;;;;4988705;28;20515;-51
2022/09/10 08:33:39;;;;;;;4.03;2.83;;;17.50;89.80;;;;;;4995069;28;20454;-51
2022/09/10 08:36:07;;;;;;;4.90;3.30;;;17.60;89.80;;;;;;4977388;28;20555;-51
2022/09/10 08:38:36;;;;;;;8.17;3.03;;;17.60;89.80;;;;;;4993722;28;20488;-51
2022/09/10 08:41:40;;;;;;;4.97;3.80;;;17.50;89.80;;;;;;4982948;28;20516;-51
2022/09/10 08:44:26;;;;;;;5.87;3.03;;;17.60;89.80;;;;;;4988727;28;20517;-51
2022/09/10 08:47:09;;;;;;;4.67;3.10;;;17.60;89.20;;;;;;4995489;28;20633;-51
2022/09/10 08:50:00;;;;;;;4.37;3.00;;;17.70;88.30;;;;;;5010039;28;20664;-51
2022/09/10 08:52:47;;;;;;;7.30;3.40;;;17.70;88.40;;;;;;4982897;28;20559;-51
2022/09/10 08:55:17;;;;;;;7.40;3.00;;;17.70;88.30;;;;;;4983658;28;21975;-51
2022/09/10 08:58:08;;;;;;;5.10;2.90;;;17.70;87.70;;;;;;4981896;28;20941;-51
2022/09/10 09:00:39;;;;;;;8.13;3.10;;;17.80;86.30;;;;;;4993530;28;20839;-51
2022/09/10 09:03:25;;;;;;;6.57;2.70;;;17.80;86.30;;;;;;4993915;28;20998;-51
2022/09/10 09:05:56;;;;;;;4.80;2.57;;;17.80;86.10;;;;;;4984539;28;20961;-51
2022/09/10 09:08:31;;;;;;;6.53;3.17;;;17.80;84.90;;;;;;4994461;28;20527;-51
2022/09/10 09:11:24;;;;;;;4.97;3.57;;;17.80;85.10;;;;;;4990937;28;20480;-51
2022/09/10 09:14:08;;;;;;;4.77;2.80;;;17.70;86.10;;;;;;4967656;28;20492;-51
2022/09/10 09:16:37;;;;;;;5.00;2.60;;;17.70;86.80;;;;;;4991285;28;20552;-51
2022/09/10 09:19:30;;;;;;;7.13;2.93;;;17.70;85.60;;;;;;4995798;28;20469;-51
2022/09/10 09:22:19;;;;;;;3.90;2.90;;;17.70;85.90;;;;;;4994149;28;20540;-51
2022/09/10 09:24:53;;;;;;;3.37;2.57;;;17.70;85.40;;;;;;4985296;28;20448;-51
2022/09/10 09:27:19;;;;;;;5.13;2.43;;;17.70;85.50;;;;;;4993691;28;20551;-51
2022/09/10 09:29:56;;;;;;;3.20;2.87;;;17.70;84.40;;;;;;4992225;28;20488;-51
2022/09/10 09:32:23;;;;;;;4.20;2.67;;;17.80;84.60;;;;;;4983412;28;21071;-51
2022/09/10 09:34:55;;;;;;;6.07;2.90;;;17.70;84.80;;;;;;4991870;28;20940;-51
2022/09/10 09:37:26;;;;;;;3.80;2.23;;;17.70;86.10;;;;;;4991911;28;20497;-51
2022/09/10 09:40:30;;;;;;;4.43;2.30;;;17.70;86.00;;;;;;4996339;28;21011;-51
2022/09/10 09:43:04;;;;;;;4.20;2.40;;;17.70;85.20;;;;;;4989350;28;22694;-51
2022/09/10 09:45:36;;;;;;;2.50;2.10;;;17.70;83.80;;;;;;4994016;28;20495;-51
2022/09/10 09:48:08;;;;;;;2.37;1.90;;;17.80;84.00;;;;;;4996815;28;20492;-51
2022/09/10 09:50:40;;;;;;;6.23;2.53;;;17.80;84.20;;;;;;4998845;28;20519;-51
2022/09/10 09:53:14;;;;;;;2.53;1.83;;;17.80;84.70;;;;;;4998790;28;20983;-51
2022/09/10 09:55:52;;;;;;;6.00;2.10;;;17.90;84.70;;;;;;4997796;28;20535;-51
2022/09/10 09:58:27;;;;;;;4.93;3.70;;;17.80;85.50;;;;;;4999445;28;20539;-51
2022/09/10 10:01:05;;;;;;;3.87;2.37;;;17.80;85.70;;;;;;4998761;28;20456;-51
2022/09/10 10:03:42;;;;;;;5.43;2.90;;;17.80;86.20;;;;;;4994275;28;20463;-51
2022/09/10 10:06:11;;;;;;;2.40;2.20;;;17.90;85.70;;;;;;5001594;28;20461;-51
2022/09/10 10:09:02;;;;;;;2.90;2.03;;;17.90;85.80;;;;;;5014844;28;20475;-51
2022/09/10 10:11:50;;;;;;;3.70;1.60;;;18.00;86.40;;;;;;5001658;28;20562;-51
2022/09/10 10:14:24;;;;;;;2.43;1.67;;;18.00;85.70;;;;;;5001572;28;20504;-51
2022/09/10 10:16:53;;;;;;;2.47;1.60;;;18.10;85.60;;;;;;4997642;28;20982;-51
2022/09/10 10:19:32;;;;;;;3.20;1.40;;;18.10;85.20;;;;;;5002558;28;20587;-51
2022/09/10 10:22:17;;;;;;;3.40;1.10;;;18.10;84.20;;;;;;4996253;28;20584;-51
2022/09/10 10:24:47;;;;;;;1.97;1.60;;;18.20;83.90;;;;;;4999764;28;20512;-51
2022/09/10 10:27:35;;;;;;;4.20;1.60;;;18.30;82.40;;;;;;4987774;28;20878;-51
2022/09/10 10:30:17;;;;;;;2.60;1.00;;;18.40;82.00;;;;;;4998728;28;20473;-51
2022/09/10 10:32:56;;;;;;;3.27;1.13;;;18.40;83.50;;;;;;4996612;28;20586;-51
2022/09/10 10:35:37;;;;;;;2.73;1.77;;;18.60;83.40;;;;;;4974675;28;20884;-51
2022/09/10 10:38:04;;;;;;;1.67;1.57;;;18.80;81.70;;;;;;4993910;28;20871;-51
2022/09/10 10:40:35;;;;;;;1.93;1.53;;;18.90;82.30;;;;;;4989086;28;20552;-51
2022/09/10 10:43:04;;;;;;;4.70;1.80;;;19.00;82.00;;;;;;4989612;28;20505;-51
2022/09/10 10:45:50;;;;;;;2.33;1.60;;;19.10;81.40;;;;;;4994904;28;20547;-51
2022/09/10 10:48:23;;;;;;;2.40;1.70;;;19.20;80.30;;;;;;4979096;28;20460;-51
2022/09/10 10:50:57;;;;;;;2.20;1.23;;;19.20;79.60;;;;;;4995102;28;20520;-51
2022/09/10 10:54:01;;;;;;;3.10;1.13;;;19.20;79.80;;;;;;4994945;28;20505;-51
2022/09/10 10:56:39;;;;;;;2.30;1.60;;;19.30;79.80;;;;;;4994807;28;20882;-50
2022/09/10 10:59:39;;;;;;;1.63;1.47;;;19.60;78.20;;;;;;4992389;28;20464;-51
2022/09/10 11:02:43;;;;;;;4.33;1.90;;;19.70;78.90;;;;;;4997532;28;20920;-51
2022/09/10 11:05:37;;;;;;;4.27;2.03;;;19.60;79.30;;;;;;4994029;28;20456;-51
2022/09/10 11:08:26;;;;;;;2.80;1.77;;;19.60;78.70;;;;;;4990790;28;20947;-51
2022/09/10 11:11:07;;;;;;;1.53;1.43;;;19.50;79.10;;;;;;4996319;28;20875;-51
2022/09/10 11:13:49;;;;;;;2.07;1.47;;;19.40;79.50;;;;;;4994853;28;20460;-51
2022/09/10 11:16:30;;;;;;;2.40;1.67;;;19.30;79.70;;;;;;4993753;28;20868;-51
2022/09/10 11:19:18;;;;;;;1.57;1.30;;;19.30;80.10;;;;;;4983040;28;20447;-51
2022/09/10 11:21:59;;;;;;;2.80;1.10;;;19.30;79.80;;;;;;4978778;28;21021;-51
2022/09/10 11:24:42;;;;;;;1.40;1.23;;;19.40;79.20;;;;;;5008817;28;20900;-51
2022/09/10 11:27:15;;;;;;;1.10;1.00;;;19.40;77.90;;;;;;4996348;28;20480;-51
2022/09/10 11:29:55;;;;;;;2.90;1.10;;;19.30;78.80;;;;;;4993100;28;20528;-51
2022/09/10 11:32:41;;;;;;;1.47;0.90;;;19.40;79.30;;;;;;4994208;28;20829;-51
2022/09/10 11:35:20;;;;;;;3.27;1.53;;;19.40;78.00;;;;;;4992004;28;21033;-51
2022/09/10 11:37:50;;;;;;;4.87;1.10;;;19.40;78.20;;;;;;4979276;28;20551;-51
2022/09/10 11:40:34;;;;;;;1.10;0.97;;;19.40;78.80;;;;;;4991993;28;20513;-51
2022/09/10 11:43:12;;;;;;;2.10;0.90;;;19.40;78.40;;;;;;4995337;28;20837;-51
2022/09/10 11:45:51;;;;;;;0.77;0.60;;;19.40;78.80;;;;;;4996949;28;20547;-51
2022/09/10 11:48:36;;;;;;;1.00;0.73;;;19.40;78.60;;;;;;4993842;28;20523;-51
2022/09/10 11:51:35;;;;;;;0.87;0.87;;;19.50;77.30;;;;;;4998160;28;20488;-51
2022/09/10 11:54:17;;;;;;;0.80;0.70;;;19.50;78.00;;;;;;4977289;28;20469;-51
2022/09/10 11:57:10;;;;;;;1.83;0.80;;;19.50;77.70;;;;;;4994012;28;20511;-51
2022/09/10 11:59:54;;;;;;;1.47;0.77;;;19.50;77.70;;;;;;4968417;28;20457;-51
2022/09/10 12:02:26;;;;;;;1.20;1.00;;;19.50;77.80;;;;;;4997516;28;20978;-51
2022/09/10 12:05:28;;;;;;;1.10;0.73;;;19.60;77.90;;;;;;4995683;28;21243;-51
2022/09/10 12:08:19;;;;;;;0.77;0.77;;;19.60;77.70;;;;;;4991533;28;20568;-51
2022/09/10 12:11:07;;;;;;;1.47;0.63;;;19.80;76.40;;;;;;4991229;28;20496;-51
2022/09/10 12:13:40;;;;;;;1.80;1.20;;;19.80;76.80;;;;;;4991820;28;20464;-51
2022/09/10 12:16:33;;;;;;;1.10;0.87;;;19.80;76.70;;;;;;4977436;28;20488;-51
2022/09/10 12:19:07;;;;;;;0.60;0.50;;;19.90;76.30;;;;;;4996343;28;20518;-50
2022/09/10 12:21:42;;;;;;;1.17;0.80;;;19.90;76.20;;;;;;4998602;28;20500;-51
2022/09/10 12:24:31;;;;;;;0.77;0.77;;;19.90;75.90;;;;;;4974277;28;20632;-51
2022/09/10 12:27:04;;;;;;;1.33;1.23;;;19.90;76.50;;;;;;4995986;28;20488;-51
2022/09/10 12:29:32;;;;;;;4.00;0.80;;;19.80;78.00;;;;;;4993613;28;20559;-51
2022/09/10 12:32:08;;;;;;;1.97;0.70;;;19.70;79.50;;;;;;4994763;28;20549;-51
2022/09/10 12:34:36;;;;;;;0.73;0.70;;;19.70;79.90;;;;;;4991520;28;20567;-51
2022/09/10 12:37:02;;;;;;;0.70;0.70;;;19.60;80.20;;;;;;4996313;28;20523;-51
2022/09/10 12:39:30;;;;;;;0.80;0.80;;;19.50;80.60;;;;;;4996070;28;20959;-51
2022/09/10 12:42:21;;;;;;;3.33;0.70;;;19.50;80.90;;;;;;4976071;28;20519;-51
2022/09/10 12:44:48;;;;;;;0.80;0.70;;;19.50;81.30;;;;;;4990176;28;20496;-51
2022/09/10 12:47:15;;;;;;;0.87;0.87;;;19.50;81.70;;;;;;4991703;28;20491;-51
2022/09/10 12:49:58;;;;;;;0.80;0.80;;;19.50;82.20;;;;;;4993437;28;20456;-51
2022/09/10 12:52:33;;;;;;;0.70;0.70;;;19.50;82.20;;;;;;4982174;28;20868;-51
2022/09/10 12:55:07;;;;;;;1.73;1.30;;;19.50;82.20;;;;;;4980157;28;20460;-51
2022/09/10 12:57:50;;;;;;;1.10;1.00;;;19.60;81.70;;;;;;4995060;28;20481;-51
2022/09/10 13:00:22;;;;;;;1.70;0.83;;;19.60;80.90;;;;;;5012904;28;20875;-51
2022/09/10 13:02:59;;;;;;;0.97;0.60;;;19.60;79.70;;;;;;4989476;28;20967;-51
2022/09/10 13:05:32;;;;;;;0.67;0.67;;;19.60;79.40;;;;;;4976211;28;20476;-51
2022/09/10 13:08:13;;;;;;;1.97;0.93;;;19.70;78.80;;;;;;4982888;28;20472;-51
2022/09/10 13:10:44;;;;;;;0.90;0.90;;;19.70;77.60;;;;;;4989145;28;20524;-51
2022/09/10 13:13:34;;;;;;;0.77;0.77;;;19.80;77.30;;;;;;4999218;28;21012;-51
2022/09/10 13:16:03;;;;;;;0.90;0.83;;;19.70;77.70;;;;;;4995260;28;20477;-51